Αρχική σελίδα
METAR-TAF:

METAR-TAF

Αεροδρόμια :

Lawrence Municipal Airport

Lawrence, Κάνσας, Ηνωμένες Πολιτείες Αμερικής

γεωγραφικό πλάτος: 39-00-30N, γεωγραφικό μήκος: 095-12-42W, υψόμετρο: 253 μ

Παρών καιρός

Η αναφορά έγινε 44 λεπτά πριν, στις 07:52 UTC
Ήπιος άνεμος
Θερμοκρασία 20°C
Υγρασία 94%
Πίεση 1011 hPa
Ορατότητα: 16.1 χλμ
Διάσπαρτα νέφη σε ύψος 7000 πόδια

METAR: KLWC 200752Z AUTO 00000KT 10SM SCT070 20/19 A2986 RMK AO2 SLP101 T02000194

Χρόνος: 03:36 (08:36 UTC)


TAF: λείπει

Μετεωρολογικές αναφορές και προγνώσεις για περισσότερα από 4000 αεροδρόμια (δελτία METAR και TAF).

Οι διαθέσιμοι σταθμοί απεικονίζονται στο χάρτη με κίτρινες και κόκκινες κουκκίδες.

Μετακινήστε το ποντίκι πάνω από τις κουκκίδες για να δείτε το όνομα του σταθμού.

Στη συνέχεια, κάντε κλικ για να δείτε τις μετεωρολογικές αναφορές και τις προγνώσεις καιρού.

Για να αλλάξετε το χάρτη: κάντε κλικ στα πράσινα κουμπιά με τον μαύρο σταυρό για να ζουμάρετε, στο πράσινο κουμπί με την παύλα για να αφαιρέσετε το ζουμ ή στα πράσινα βέλη για να αντιπαραβάλλετε χάρτες.


METAR-TAF: